sensor_id;sensor_type;location;lat;lon;timestamp;temperature;humidity
13659;DHT22;6902;52.158;11.574;2023-09-07T00:02:38;18.70;99.90
13659;DHT22;6902;52.158;11.574;2023-09-07T00:07:39;18.60;99.90
13659;DHT22;6902;52.158;11.574;2023-09-07T00:10:08;18.60;99.90
13659;DHT22;6902;52.158;11.574;2023-09-07T00:12:37;18.60;99.90
13659;DHT22;6902;52.158;11.574;2023-09-07T00:15:08;18.60;99.90
13659;DHT22;6902;52.158;11.574;2023-09-07T00:17:37;18.40;99.90
13659;DHT22;6902;52.158;11.574;2023-09-07T00:20:06;18.30;99.90
13659;DHT22;6902;52.158;11.574;2023-09-07T00:22:42;18.20;99.90
13659;DHT22;6902;52.158;11.574;2023-09-07T00:25:11;18.10;99.90
13659;DHT22;6902;52.158;11.574;2023-09-07T00:27:40;18.10;99.90
13659;DHT22;6902;52.158;11.574;2023-09-07T00:30:10;18.10;99.90
13659;DHT22;6902;52.158;11.574;2023-09-07T00:32:39;18.10;99.90
13659;DHT22;6902;52.158;11.574;2023-09-07T00:35:08;18.10;99.90
13659;DHT22;6902;52.158;11.574;2023-09-07T00:37:37;18.10;99.90
13659;DHT22;6902;52.158;11.574;2023-09-07T00:40:10;18.10;99.90
13659;DHT22;6902;52.158;11.574;2023-09-07T00:42:39;18.00;99.90
13659;DHT22;6902;52.158;11.574;2023-09-07T00:45:08;18.00;99.90
13659;DHT22;6902;52.158;11.574;2023-09-07T01:15:15;18.00;99.90
13659;DHT22;6902;52.158;11.574;2023-09-07T01:27:45;17.40;99.90
13659;DHT22;6902;52.158;11.574;2023-09-07T01:30:14;17.40;99.90
13659;DHT22;6902;52.158;11.574;2023-09-07T01:32:44;17.40;99.90
13659;DHT22;6902;52.158;11.574;2023-09-07T01:57:46;17.40;99.90
13659;DHT22;6902;52.158;11.574;2023-09-07T02:00:15;17.00;99.90
13659;DHT22;6902;52.158;11.574;2023-09-07T02:02:44;16.90;99.90
13659;DHT22;6902;52.158;11.574;2023-09-07T02:05:13;16.80;99.90
13659;DHT22;6902;52.158;11.574;2023-09-07T02:07:42;16.80;99.90
13659;DHT22;6902;52.158;11.574;2023-09-07T02:10:13;16.90;99.90
13659;DHT22;6902;52.158;11.574;2023-09-07T02:12:45;16.90;99.90
13659;DHT22;6902;52.158;11.574;2023-09-07T02:15:14;17.00;99.90
13659;DHT22;6902;52.158;11.574;2023-09-07T02:17:43;17.00;99.90
13659;DHT22;6902;52.158;11.574;2023-09-07T02:20:15;17.00;99.90
13659;DHT22;6902;52.158;11.574;2023-09-07T02:22:45;17.00;99.90
13659;DHT22;6902;52.158;11.574;2023-09-07T02:27:46;16.50;99.90
13659;DHT22;6902;52.158;11.574;2023-09-07T02:30:15;16.80;99.90
13659;DHT22;6902;52.158;11.574;2023-09-07T02:32:46;16.50;99.90
13659;DHT22;6902;52.158;11.574;2023-09-07T02:35:15;16.70;99.90
13659;DHT22;6902;52.158;11.574;2023-09-07T02:37:43;16.60;99.90
13659;DHT22;6902;52.158;11.574;2023-09-07T02:40:12;16.70;99.90
13659;DHT22;6902;52.158;11.574;2023-09-07T02:42:41;16.70;99.90
13659;DHT22;6902;52.158;11.574;2023-09-07T02:45:14;16.80;99.90
13659;DHT22;6902;52.158;11.574;2023-09-07T02:47:43;16.70;99.90
13659;DHT22;6902;52.158;11.574;2023-09-07T02:50:13;16.70;99.90
13659;DHT22;6902;52.158;11.574;2023-09-07T02:52:43;16.70;99.90
13659;DHT22;6902;52.158;11.574;2023-09-07T02:55:12;16.50;99.90
13659;DHT22;6902;52.158;11.574;2023-09-07T02:57:41;16.40;99.90
13659;DHT22;6902;52.158;11.574;2023-09-07T03:00:13;16.30;99.90
13659;DHT22;6902;52.158;11.574;2023-09-07T03:02:44;16.30;99.90
13659;DHT22;6902;52.158;11.574;2023-09-07T03:05:14;16.30;99.90
13659;DHT22;6902;52.158;11.574;2023-09-07T03:07:45;16.30;99.90
13659;DHT22;6902;52.158;11.574;2023-09-07T03:10:16;16.30;99.90
13659;DHT22;6902;52.158;11.574;2023-09-07T03:12:45;16.30;99.90
13659;DHT22;6902;52.158;11.574;2023-09-07T03:15:17;16.40;99.90
13659;DHT22;6902;52.158;11.574;2023-09-07T03:17:45;16.30;99.90
13659;DHT22;6902;52.158;11.574;2023-09-07T03:20:14;16.40;99.90
13659;DHT22;6902;52.158;11.574;2023-09-07T03:22:48;16.40;99.90
13659;DHT22;6902;52.158;11.574;2023-09-07T03:25:17;16.40;99.90
13659;DHT22;6902;52.158;11.574;2023-09-07T07:32:56;22.50;99.90
13659;DHT22;6902;52.158;11.574;2023-09-07T07:35:28;23.00;99.90
13659;DHT22;6902;52.158;11.574;2023-09-07T07:37:57;23.10;99.90
13659;DHT22;6902;52.158;11.574;2023-09-07T07:40:26;23.20;99.90
13659;DHT22;6902;52.158;11.574;2023-09-07T07:42:55;23.40;99.90
13659;DHT22;6902;52.158;11.574;2023-09-07T07:45:26;23.50;99.90
13659;DHT22;6902;52.158;11.574;2023-09-07T07:47:55;23.60;99.90
13659;DHT22;6902;52.158;11.574;2023-09-07T07:50:24;23.70;99.90
13659;DHT22;6902;52.158;11.574;2023-09-07T07:52:56;23.80;99.90
13659;DHT22;6902;52.158;11.574;2023-09-07T07:55:25;23.90;99.90
13659;DHT22;6902;52.158;11.574;2023-09-07T07:57:53;24.00;99.90
13659;DHT22;6902;52.158;11.574;2023-09-07T08:00:22;24.10;99.90
13659;DHT22;6902;52.158;11.574;2023-09-07T08:02:53;24.20;99.90
13659;DHT22;6902;52.158;11.574;2023-09-07T08:05:22;24.20;99.90
13659;DHT22;6902;52.158;11.574;2023-09-07T08:07:51;24.30;99.90
13659;DHT22;6902;52.158;11.574;2023-09-07T08:10:22;24.40;99.90
13659;DHT22;6902;52.158;11.574;2023-09-07T08:12:53;24.60;99.90
13659;DHT22;6902;52.158;11.574;2023-09-07T08:15:23;24.70;99.90
13659;DHT22;6902;52.158;11.574;2023-09-07T08:17:53;24.70;99.90
13659;DHT22;6902;52.158;11.574;2023-09-07T08:20:22;24.90;99.90
13659;DHT22;6902;52.158;11.574;2023-09-07T08:22:55;24.80;99.90
13659;DHT22;6902;52.158;11.574;2023-09-07T08:25:27;25.00;99.90
13659;DHT22;6902;52.158;11.574;2023-09-07T08:27:56;25.00;99.90
13659;DHT22;6902;52.158;11.574;2023-09-07T08:30:25;25.20;99.90
13659;DHT22;6902;52.158;11.574;2023-09-07T08:32:55;25.30;99.90
13659;DHT22;6902;52.158;11.574;2023-09-07T08:35:24;25.30;99.90
13659;DHT22;6902;52.158;11.574;2023-09-07T08:37:54;25.50;99.90
13659;DHT22;6902;52.158;11.574;2023-09-07T08:40:28;25.60;99.90
13659;DHT22;6902;52.158;11.574;2023-09-07T08:43:00;25.60;99.90
13659;DHT22;6902;52.158;11.574;2023-09-07T08:45:34;25.50;99.90
13659;DHT22;6902;52.158;11.574;2023-09-07T08:48:06;25.60;99.90
13659;DHT22;6902;52.158;11.574;2023-09-07T08:50:37;25.60;99.90
13659;DHT22;6902;52.158;11.574;2023-09-07T08:55:40;26.10;99.90
13659;DHT22;6902;52.158;11.574;2023-09-07T08:58:09;26.10;99.90
13659;DHT22;6902;52.158;11.574;2023-09-07T09:00:37;26.20;99.90
13659;DHT22;6902;52.158;11.574;2023-09-07T09:03:09;26.30;99.90
13659;DHT22;6902;52.158;11.574;2023-09-07T09:05:39;26.40;99.90
13659;DHT22;6902;52.158;11.574;2023-09-07T09:08:09;26.40;99.90
13659;DHT22;6902;52.158;11.574;2023-09-07T09:10:40;26.40;99.90
13659;DHT22;6902;52.158;11.574;2023-09-07T09:13:09;26.50;99.90
13659;DHT22;6902;52.158;11.574;2023-09-07T09:15:39;26.50;99.90
13659;DHT22;6902;52.158;11.574;2023-09-07T09:18:11;26.70;99.90
13659;DHT22;6902;52.158;11.574;2023-09-07T09:20:40;26.80;99.90
13659;DHT22;6902;52.158;11.574;2023-09-07T09:23:10;27.00;99.90
13659;DHT22;6902;52.158;11.574;2023-09-07T09:25:43;27.00;99.90
13659;DHT22;6902;52.158;11.574;2023-09-07T09:28:12;27.10;99.90
13659;DHT22;6902;52.158;11.574;2023-09-07T09:30:41;27.30;99.90
13659;DHT22;6902;52.158;11.574;2023-09-07T09:33:11;27.50;99.90
13659;DHT22;6902;52.158;11.574;2023-09-07T09:35:42;27.50;99.90
13659;DHT22;6902;52.158;11.574;2023-09-07T09:38:13;27.70;99.90
13659;DHT22;6902;52.158;11.574;2023-09-07T09:40:45;27.80;99.90
13659;DHT22;6902;52.158;11.574;2023-09-07T09:43:14;27.90;99.90
13659;DHT22;6902;52.158;11.574;2023-09-07T09:45:43;27.90;99.90
13659;DHT22;6902;52.158;11.574;2023-09-07T09:48:13;27.90;99.90
13659;DHT22;6902;52.158;11.574;2023-09-07T09:50:43;28.00;99.90
13659;DHT22;6902;52.158;11.574;2023-09-07T09:53:15;28.00;99.90
13659;DHT22;6902;52.158;11.574;2023-09-07T09:55:49;28.00;99.90
13659;DHT22;6902;52.158;11.574;2023-09-07T09:58:18;28.10;99.90
13659;DHT22;6902;52.158;11.574;2023-09-07T10:00:49;28.20;99.90
13659;DHT22;6902;52.158;11.574;2023-09-07T10:03:22;28.20;99.90
13659;DHT22;6902;52.158;11.574;2023-09-07T10:05:52;28.40;99.90
13659;DHT22;6902;52.158;11.574;2023-09-07T10:08:21;28.40;99.90
13659;DHT22;6902;52.158;11.574;2023-09-07T10:10:57;28.40;99.90
13659;DHT22;6902;52.158;11.574;2023-09-07T10:13:29;28.50;99.90
13659;DHT22;6902;52.158;11.574;2023-09-07T10:16:03;28.50;99.90
13659;DHT22;6902;52.158;11.574;2023-09-07T10:18:34;28.50;99.90
13659;DHT22;6902;52.158;11.574;2023-09-07T10:21:03;28.50;99.90
13659;DHT22;6902;52.158;11.574;2023-09-07T10:23:37;28.50;99.90
13659;DHT22;6902;52.158;11.574;2023-09-07T10:26:14;28.40;99.90
13659;DHT22;6902;52.158;11.574;2023-09-07T10:28:44;28.50;99.90
13659;DHT22;6902;52.158;11.574;2023-09-07T10:33:47;28.50;99.90
13659;DHT22;6902;52.158;11.574;2023-09-07T10:36:22;28.80;99.90
13659;DHT22;6902;52.158;11.574;2023-09-07T10:38:55;28.90;99.90
13659;DHT22;6902;52.158;11.574;2023-09-07T10:41:26;29.00;99.90
13659;DHT22;6902;52.158;11.574;2023-09-07T10:43:55;29.00;99.90
13659;DHT22;6902;52.158;11.574;2023-09-07T10:46:24;29.00;99.90
13659;DHT22;6902;52.158;11.574;2023-09-07T10:48:53;29.10;99.90
13659;DHT22;6902;52.158;11.574;2023-09-07T10:51:22;29.20;99.90
13659;DHT22;6902;52.158;11.574;2023-09-07T10:53:51;29.20;99.90
13659;DHT22;6902;52.158;11.574;2023-09-07T10:56:26;29.20;99.90
13659;DHT22;6902;52.158;11.574;2023-09-07T10:58:55;29.20;99.90
13659;DHT22;6902;52.158;11.574;2023-09-07T11:01:24;29.30;99.90
13659;DHT22;6902;52.158;11.574;2023-09-07T11:03:53;29.30;99.90
13659;DHT22;6902;52.158;11.574;2023-09-07T11:06:22;29.30;99.90
13659;DHT22;6902;52.158;11.574;2023-09-07T11:08:51;29.40;99.90
13659;DHT22;6902;52.158;11.574;2023-09-07T11:11:20;29.50;99.90
13659;DHT22;6902;52.158;11.574;2023-09-07T11:13:53;29.60;99.90
13659;DHT22;6902;52.158;11.574;2023-09-07T11:16:25;29.60;99.90
13659;DHT22;6902;52.158;11.574;2023-09-07T11:18:54;29.70;99.90
13659;DHT22;6902;52.158;11.574;2023-09-07T11:21:24;29.80;99.90
13659;DHT22;6902;52.158;11.574;2023-09-07T11:23:53;30.00;99.90
13659;DHT22;6902;52.158;11.574;2023-09-07T11:26:22;30.00;99.90
13659;DHT22;6902;52.158;11.574;2023-09-07T11:28:53;30.10;99.90
13659;DHT22;6902;52.158;11.574;2023-09-07T11:31:22;30.20;99.90
13659;DHT22;6902;52.158;11.574;2023-09-07T11:33:53;30.10;99.90
13659;DHT22;6902;52.158;11.574;2023-09-07T11:36:22;30.10;99.90
13659;DHT22;6902;52.158;11.574;2023-09-07T11:38:51;30.20;99.90
13659;DHT22;6902;52.158;11.574;2023-09-07T11:41:20;30.10;99.90
13659;DHT22;6902;52.158;11.574;2023-09-07T11:43:48;30.10;99.90
13659;DHT22;6902;52.158;11.574;2023-09-07T11:46:20;30.10;99.90
13659;DHT22;6902;52.158;11.574;2023-09-07T11:48:49;30.10;99.90
13659;DHT22;6902;52.158;11.574;2023-09-07T11:51:18;30.10;99.90
13659;DHT22;6902;52.158;11.574;2023-09-07T11:53:47;30.20;99.90
13659;DHT22;6902;52.158;11.574;2023-09-07T11:56:16;30.20;99.90
13659;DHT22;6902;52.158;11.574;2023-09-07T11:58:45;30.20;99.90
13659;DHT22;6902;52.158;11.574;2023-09-07T12:01:13;30.20;99.90
13659;DHT22;6902;52.158;11.574;2023-09-07T12:03:45;30.10;99.90
13659;DHT22;6902;52.158;11.574;2023-09-07T12:06:14;30.10;99.90
13659;DHT22;6902;52.158;11.574;2023-09-07T12:08:58;30.20;99.90
13659;DHT22;6902;52.158;11.574;2023-09-07T12:11:27;30.10;99.90
13659;DHT22;6902;52.158;11.574;2023-09-07T12:13:56;30.10;99.90
13659;DHT22;6902;52.158;11.574;2023-09-07T12:16:25;30.10;99.90
13659;DHT22;6902;52.158;11.574;2023-09-07T12:18:57;30.10;99.90
13659;DHT22;6902;52.158;11.574;2023-09-07T12:21:26;30.00;99.90
13659;DHT22;6902;52.158;11.574;2023-09-07T12:23:54;29.80;99.90
13659;DHT22;6902;52.158;11.574;2023-09-07T12:26:23;29.70;99.90
13659;DHT22;6902;52.158;11.574;2023-09-07T12:28:52;29.60;99.90
13659;DHT22;6902;52.158;11.574;2023-09-07T12:31:20;29.50;99.90
13659;DHT22;6902;52.158;11.574;2023-09-07T12:33:49;29.40;99.90
13659;DHT22;6902;52.158;11.574;2023-09-07T12:36:20;29.40;99.90
13659;DHT22;6902;52.158;11.574;2023-09-07T12:38:50;29.40;99.90
13659;DHT22;6902;52.158;11.574;2023-09-07T12:41:19;29.40;99.90
13659;DHT22;6902;52.158;11.574;2023-09-07T12:43:48;29.40;99.90
13659;DHT22;6902;52.158;11.574;2023-09-07T12:46:18;29.40;99.90
13659;DHT22;6902;52.158;11.574;2023-09-07T12:48:47;29.40;99.90
13659;DHT22;6902;52.158;11.574;2023-09-07T12:51:16;29.50;99.90
13659;DHT22;6902;52.158;11.574;2023-09-07T12:53:47;29.50;99.90
13659;DHT22;6902;52.158;11.574;2023-09-07T12:56:17;29.50;99.90
13659;DHT22;6902;52.158;11.574;2023-09-07T12:58:46;29.40;99.90
13659;DHT22;6902;52.158;11.574;2023-09-07T13:01:15;29.40;99.90
13659;DHT22;6902;52.158;11.574;2023-09-07T13:03:44;29.30;99.90
13659;DHT22;6902;52.158;11.574;2023-09-07T13:06:12;29.20;99.90
13659;DHT22;6902;52.158;11.574;2023-09-07T13:08:43;29.20;99.90
13659;DHT22;6902;52.158;11.574;2023-09-07T13:11:14;29.20;99.90
13659;DHT22;6902;52.158;11.574;2023-09-07T13:13:44;29.10;99.90
13659;DHT22;6902;52.158;11.574;2023-09-07T13:16:13;29.10;99.90
13659;DHT22;6902;52.158;11.574;2023-09-07T13:18:42;29.10;99.90
13659;DHT22;6902;52.158;11.574;2023-09-07T13:21:10;29.10;99.90
13659;DHT22;6902;52.158;11.574;2023-09-07T13:23:39;29.20;99.90
13659;DHT22;6902;52.158;11.574;2023-09-07T13:26:09;29.10;99.90
13659;DHT22;6902;52.158;11.574;2023-09-07T13:28:41;29.10;99.90
13659;DHT22;6902;52.158;11.574;2023-09-07T13:31:09;29.00;99.90
13659;DHT22;6902;52.158;11.574;2023-09-07T13:33:38;29.00;99.90
13659;DHT22;6902;52.158;11.574;2023-09-07T13:36:07;29.00;99.90
13659;DHT22;6902;52.158;11.574;2023-09-07T13:38:36;29.00;99.90
13659;DHT22;6902;52.158;11.574;2023-09-07T13:41:07;29.00;99.90
13659;DHT22;6902;52.158;11.574;2023-09-07T13:43:36;29.00;99.90
13659;DHT22;6902;52.158;11.574;2023-09-07T13:46:07;29.00;99.90
13659;DHT22;6902;52.158;11.574;2023-09-07T13:48:36;29.00;99.90
13659;DHT22;6902;52.158;11.574;2023-09-07T13:51:05;29.00;99.90
13659;DHT22;6902;52.158;11.574;2023-09-07T13:53:34;29.00;99.90
13659;DHT22;6902;52.158;11.574;2023-09-07T13:56:03;29.00;99.90
13659;DHT22;6902;52.158;11.574;2023-09-07T13:58:32;29.00;99.90
13659;DHT22;6902;52.158;11.574;2023-09-07T14:01:01;29.00;99.90
13659;DHT22;6902;52.158;11.574;2023-09-07T14:03:33;29.00;99.90
13659;DHT22;6902;52.158;11.574;2023-09-07T14:06:02;29.00;99.90
13659;DHT22;6902;52.158;11.574;2023-09-07T14:08:31;29.00;99.90
13659;DHT22;6902;52.158;11.574;2023-09-07T14:11:00;29.00;99.90
13659;DHT22;6902;52.158;11.574;2023-09-07T14:13:31;28.90;99.90
13659;DHT22;6902;52.158;11.574;2023-09-07T14:16:00;28.90;99.90
13659;DHT22;6902;52.158;11.574;2023-09-07T14:18:32;28.90;99.90
13659;DHT22;6902;52.158;11.574;2023-09-07T14:21:01;29.00;99.90
13659;DHT22;6902;52.158;11.574;2023-09-07T14:23:29;29.00;99.90
13659;DHT22;6902;52.158;11.574;2023-09-07T14:25:58;29.00;99.90
13659;DHT22;6902;52.158;11.574;2023-09-07T14:28:27;29.00;99.90
13659;DHT22;6902;52.158;11.574;2023-09-07T14:30:56;29.00;99.90
13659;DHT22;6902;52.158;11.574;2023-09-07T14:33:29;29.00;99.90
13659;DHT22;6902;52.158;11.574;2023-09-07T14:36:00;29.10;99.90
13659;DHT22;6902;52.158;11.574;2023-09-07T14:38:29;29.00;99.90
13659;DHT22;6902;52.158;11.574;2023-09-07T14:41:01;29.00;99.90
13659;DHT22;6902;52.158;11.574;2023-09-07T14:43:30;29.00;99.90
13659;DHT22;6902;52.158;11.574;2023-09-07T14:45:59;29.00;99.90
13659;DHT22;6902;52.158;11.574;2023-09-07T14:48:28;29.00;99.90
13659;DHT22;6902;52.158;11.574;2023-09-07T14:51:00;29.00;99.90
13659;DHT22;6902;52.158;11.574;2023-09-07T14:53:29;29.00;99.90
13659;DHT22;6902;52.158;11.574;2023-09-07T14:55:58;29.00;99.90
13659;DHT22;6902;52.158;11.574;2023-09-07T14:58:27;29.00;99.90
13659;DHT22;6902;52.158;11.574;2023-09-07T15:00:56;29.00;99.90
13659;DHT22;6902;52.158;11.574;2023-09-07T15:03:25;29.00;99.90
13659;DHT22;6902;52.158;11.574;2023-09-07T15:05:54;29.00;99.90
13659;DHT22;6902;52.158;11.574;2023-09-07T15:08:26;28.90;99.90
13659;DHT22;6902;52.158;11.574;2023-09-07T15:10:54;28.90;99.90
13659;DHT22;6902;52.158;11.574;2023-09-07T15:13:24;28.90;99.90
13659;DHT22;6902;52.158;11.574;2023-09-07T15:15:53;28.90;99.90
13659;DHT22;6902;52.158;11.574;2023-09-07T15:18:22;28.90;99.90
13659;DHT22;6902;52.158;11.574;2023-09-07T15:20:50;28.90;99.90
13659;DHT22;6902;52.158;11.574;2023-09-07T15:23:20;28.90;99.90
13659;DHT22;6902;52.158;11.574;2023-09-07T15:25:51;28.90;99.90
13659;DHT22;6902;52.158;11.574;2023-09-07T15:28:21;28.90;99.90
13659;DHT22;6902;52.158;11.574;2023-09-07T15:30:50;28.90;99.90
13659;DHT22;6902;52.158;11.574;2023-09-07T15:33:21;28.80;99.90
13659;DHT22;6902;52.158;11.574;2023-09-07T15:35:50;28.80;99.90
13659;DHT22;6902;52.158;11.574;2023-09-07T15:38:19;28.80;99.90
13659;DHT22;6902;52.158;11.574;2023-09-07T15:40:51;28.80;99.90
13659;DHT22;6902;52.158;11.574;2023-09-07T15:43:20;28.80;99.90
13659;DHT22;6902;52.158;11.574;2023-09-07T15:45:49;28.70;99.90
13659;DHT22;6902;52.158;11.574;2023-09-07T15:48:18;28.70;99.90
13659;DHT22;6902;52.158;11.574;2023-09-07T15:50:48;28.70;99.90
13659;DHT22;6902;52.158;11.574;2023-09-07T15:53:17;28.70;99.90
13659;DHT22;6902;52.158;11.574;2023-09-07T15:55:46;28.60;99.90
13659;DHT22;6902;52.158;11.574;2023-09-07T15:58:17;28.60;99.90
13659;DHT22;6902;52.158;11.574;2023-09-07T16:00:46;28.60;99.90
13659;DHT22;6902;52.158;11.574;2023-09-07T16:03:15;28.60;99.90
13659;DHT22;6902;52.158;11.574;2023-09-07T16:05:44;28.60;99.90
13659;DHT22;6902;52.158;11.574;2023-09-07T16:08:13;28.60;99.90
13659;DHT22;6902;52.158;11.574;2023-09-07T16:10:42;28.50;99.90
13659;DHT22;6902;52.158;11.574;2023-09-07T16:13:10;28.50;99.90
13659;DHT22;6902;52.158;11.574;2023-09-07T16:15:42;28.50;99.90
13659;DHT22;6902;52.158;11.574;2023-09-07T16:18:11;28.40;99.90
13659;DHT22;6902;52.158;11.574;2023-09-07T16:20:41;28.40;99.90
13659;DHT22;6902;52.158;11.574;2023-09-07T16:23:10;28.40;99.90
13659;DHT22;6902;52.158;11.574;2023-09-07T16:25:38;28.40;99.90
13659;DHT22;6902;52.158;11.574;2023-09-07T16:28:07;28.30;99.90
13659;DHT22;6902;52.158;11.574;2023-09-07T16:30:36;28.30;99.90
13659;DHT22;6902;52.158;11.574;2023-09-07T16:33:08;28.20;99.90
13659;DHT22;6902;52.158;11.574;2023-09-07T16:35:37;28.20;99.90
13659;DHT22;6902;52.158;11.574;2023-09-07T16:38:05;28.20;99.90
13659;DHT22;6902;52.158;11.574;2023-09-07T16:40:36;28.10;99.90
13659;DHT22;6902;52.158;11.574;2023-09-07T16:43:06;28.10;99.90
13659;DHT22;6902;52.158;11.574;2023-09-07T16:45:34;28.10;99.90
13659;DHT22;6902;52.158;11.574;2023-09-07T16:48:04;28.10;99.90
13659;DHT22;6902;52.158;11.574;2023-09-07T16:50:35;28.00;99.90
13659;DHT22;6902;52.158;11.574;2023-09-07T16:53:05;28.00;99.90
13659;DHT22;6902;52.158;11.574;2023-09-07T16:55:34;27.90;99.90
13659;DHT22;6902;52.158;11.574;2023-09-07T16:58:03;27.90;99.90
13659;DHT22;6902;52.158;11.574;2023-09-07T17:00:33;27.90;99.90
13659;DHT22;6902;52.158;11.574;2023-09-07T17:03:03;27.80;99.90
13659;DHT22;6902;52.158;11.574;2023-09-07T17:05:35;27.80;99.90
13659;DHT22;6902;52.158;11.574;2023-09-07T17:08:05;27.70;99.90
13659;DHT22;6902;52.158;11.574;2023-09-07T17:10:35;27.60;99.90
13659;DHT22;6902;52.158;11.574;2023-09-07T17:13:05;27.60;99.90
13659;DHT22;6902;52.158;11.574;2023-09-07T17:15:34;27.60;99.90
13659;DHT22;6902;52.158;11.574;2023-09-07T17:18:03;27.60;99.90
13659;DHT22;6902;52.158;11.574;2023-09-07T17:20:37;27.50;99.90
13659;DHT22;6902;52.158;11.574;2023-09-07T17:23:06;27.50;99.90
13659;DHT22;6902;52.158;11.574;2023-09-07T17:25:37;27.40;99.90
13659;DHT22;6902;52.158;11.574;2023-09-07T17:28:06;27.30;99.90
13659;DHT22;6902;52.158;11.574;2023-09-07T17:30:35;27.30;99.90
13659;DHT22;6902;52.158;11.574;2023-09-07T17:33:04;27.20;99.90
13659;DHT22;6902;52.158;11.574;2023-09-07T17:35:37;27.10;99.90
13659;DHT22;6902;52.158;11.574;2023-09-07T17:38:06;27.00;99.90
13659;DHT22;6902;52.158;11.574;2023-09-07T17:40:35;26.80;99.90
13659;DHT22;6902;52.158;11.574;2023-09-07T17:43:04;26.70;99.90
13659;DHT22;6902;52.158;11.574;2023-09-07T17:45:33;26.60;99.90
13659;DHT22;6902;52.158;11.574;2023-09-07T17:48:02;26.50;99.90
13659;DHT22;6902;52.158;11.574;2023-09-07T17:50:31;26.50;99.90
13659;DHT22;6902;52.158;11.574;2023-09-07T17:53:02;26.40;99.90
13659;DHT22;6902;52.158;11.574;2023-09-07T17:55:31;26.30;99.90
13659;DHT22;6902;52.158;11.574;2023-09-07T17:58:00;26.20;99.90
13659;DHT22;6902;52.158;11.574;2023-09-07T18:00:28;26.20;99.90
13659;DHT22;6902;52.158;11.574;2023-09-07T18:02:58;26.10;99.90
13659;DHT22;6902;52.158;11.574;2023-09-07T18:05:27;26.00;99.90
13659;DHT22;6902;52.158;11.574;2023-09-07T18:07:56;25.90;99.90
13659;DHT22;6902;52.158;11.574;2023-09-07T18:10:27;25.80;99.90
13659;DHT22;6902;52.158;11.574;2023-09-07T18:12:58;25.80;99.90
13659;DHT22;6902;52.158;11.574;2023-09-07T18:15:27;25.70;99.90
13659;DHT22;6902;52.158;11.574;2023-09-07T18:17:56;25.60;99.90
13659;DHT22;6902;52.158;11.574;2023-09-07T18:20:25;25.50;99.90
13659;DHT22;6902;52.158;11.574;2023-09-07T18:22:53;25.40;99.90
13659;DHT22;6902;52.158;11.574;2023-09-07T18:25:23;25.40;99.90
13659;DHT22;6902;52.158;11.574;2023-09-07T18:27:54;25.30;99.90
13659;DHT22;6902;52.158;11.574;2023-09-07T18:30:23;25.20;99.90
13659;DHT22;6902;52.158;11.574;2023-09-07T18:32:52;25.10;99.90
13659;DHT22;6902;52.158;11.574;2023-09-07T18:35:20;25.10;99.90
13659;DHT22;6902;52.158;11.574;2023-09-07T18:37:49;25.10;99.90
13659;DHT22;6902;52.158;11.574;2023-09-07T18:40:18;25.10;99.90
13659;DHT22;6902;52.158;11.574;2023-09-07T18:42:47;25.10;99.90
13659;DHT22;6902;52.158;11.574;2023-09-07T18:45:18;25.00;99.90
13659;DHT22;6902;52.158;11.574;2023-09-07T18:47:47;25.00;99.90
13659;DHT22;6902;52.158;11.574;2023-09-07T18:50:16;25.00;99.90
13659;DHT22;6902;52.158;11.574;2023-09-07T18:52:49;25.00;99.90
13659;DHT22;6902;52.158;11.574;2023-09-07T18:55:18;24.90;99.90
13659;DHT22;6902;52.158;11.574;2023-09-07T18:57:46;24.90;99.90
13659;DHT22;6902;52.158;11.574;2023-09-07T19:00:18;24.90;99.90
13659;DHT22;6902;52.158;11.574;2023-09-07T19:02:47;24.80;99.90
13659;DHT22;6902;52.158;11.574;2023-09-07T19:05:16;24.80;99.90
13659;DHT22;6902;52.158;11.574;2023-09-07T19:07:45;24.80;99.90
13659;DHT22;6902;52.158;11.574;2023-09-07T19:10:13;24.70;99.90
13659;DHT22;6902;52.158;11.574;2023-09-07T19:12:42;24.70;99.90
13659;DHT22;6902;52.158;11.574;2023-09-07T19:15:11;24.70;99.90
13659;DHT22;6902;52.158;11.574;2023-09-07T19:17:45;24.70;99.90
13659;DHT22;6902;52.158;11.574;2023-09-07T19:20:14;24.70;99.90
13659;DHT22;6902;52.158;11.574;2023-09-07T19:22:43;24.70;99.90
13659;DHT22;6902;52.158;11.574;2023-09-07T19:25:12;24.60;99.90
13659;DHT22;6902;52.158;11.574;2023-09-07T19:27:41;24.60;99.90
13659;DHT22;6902;52.158;11.574;2023-09-07T19:30:10;24.60;99.90
13659;DHT22;6902;52.158;11.574;2023-09-07T19:32:39;24.60;99.90
13659;DHT22;6902;52.158;11.574;2023-09-07T19:35:10;24.60;99.90
13659;DHT22;6902;52.158;11.574;2023-09-07T19:37:39;24.50;99.90
13659;DHT22;6902;52.158;11.574;2023-09-07T19:40:09;24.50;99.90
13659;DHT22;6902;52.158;11.574;2023-09-07T19:42:38;24.40;99.90
13659;DHT22;6902;52.158;11.574;2023-09-07T19:45:08;24.40;99.90
13659;DHT22;6902;52.158;11.574;2023-09-07T19:47:37;24.30;99.90
13659;DHT22;6902;52.158;11.574;2023-09-07T19:50:10;24.30;99.90
13659;DHT22;6902;52.158;11.574;2023-09-07T19:52:39;24.20;99.90
13659;DHT22;6902;52.158;11.574;2023-09-07T19:55:11;24.20;99.90
13659;DHT22;6902;52.158;11.574;2023-09-07T19:57:40;24.20;99.90
13659;DHT22;6902;52.158;11.574;2023-09-07T20:00:09;24.10;99.90
13659;DHT22;6902;52.158;11.574;2023-09-07T20:02:39;24.10;99.90
13659;DHT22;6902;52.158;11.574;2023-09-07T20:05:10;24.00;99.90
13659;DHT22;6902;52.158;11.574;2023-09-07T20:07:39;23.90;99.90
13659;DHT22;6902;52.158;11.574;2023-09-07T20:10:09;23.90;99.90
13659;DHT22;6902;52.158;11.574;2023-09-07T20:12:38;23.80;99.90
13659;DHT22;6902;52.158;11.574;2023-09-07T20:15:07;23.80;99.90
13659;DHT22;6902;52.158;11.574;2023-09-07T20:17:36;23.80;99.90
13659;DHT22;6902;52.158;11.574;2023-09-07T20:20:06;23.70;99.90
13659;DHT22;6902;52.158;11.574;2023-09-07T20:22:38;23.70;99.90
13659;DHT22;6902;52.158;11.574;2023-09-07T20:25:07;23.70;99.90
13659;DHT22;6902;52.158;11.574;2023-09-07T20:27:36;23.60;99.90
13659;DHT22;6902;52.158;11.574;2023-09-07T20:30:07;23.60;99.90
13659;DHT22;6902;52.158;11.574;2023-09-07T20:32:37;23.50;99.90
13659;DHT22;6902;52.158;11.574;2023-09-07T20:35:06;23.50;99.90
13659;DHT22;6902;52.158;11.574;2023-09-07T20:40:07;23.40;99.90
13659;DHT22;6902;52.158;11.574;2023-09-07T20:42:38;23.40;99.90
13659;DHT22;6902;52.158;11.574;2023-09-07T20:45:07;23.40;99.90
13659;DHT22;6902;52.158;11.574;2023-09-07T20:47:36;23.30;99.90
13659;DHT22;6902;52.158;11.574;2023-09-07T20:50:06;23.30;99.90
13659;DHT22;6902;52.158;11.574;2023-09-07T20:52:34;23.20;99.90
13659;DHT22;6902;52.158;11.574;2023-09-07T20:55:06;23.20;99.90
